createdAt,value
2019-04-10T00:03:02.085Z,74.66
2019-04-10T00:06:09.751Z,74.45
2019-04-10T00:09:16.912Z,74.92
2019-04-10T00:12:25.426Z,74.66
2019-04-10T00:15:32.709Z,74.20
2019-04-10T00:18:40.089Z,73.76
2019-04-10T00:21:47.340Z,74.34
2019-04-10T00:24:54.568Z,74.74
2019-04-10T00:28:01.227Z,74.22
2019-04-10T00:31:07.585Z,73.91
2019-04-10T00:34:13.932Z,73.45
2019-04-10T00:37:26.762Z,73.04
2019-04-10T00:40:31.610Z,73.13
2019-04-10T00:43:39.943Z,72.96
2019-04-10T00:46:46.530Z,73.82
2019-04-10T00:49:53.669Z,72.90
2019-04-10T00:53:00.961Z,72.71
2019-04-10T00:56:08.450Z,72.52
2019-04-10T00:59:15.778Z,72.52
2019-04-10T01:02:22.682Z,72.45
2019-04-10T01:05:29.233Z,72.74
2019-04-10T01:08:37.042Z,73.00
2019-04-10T01:11:43.603Z,72.45
2019-04-10T01:14:50.480Z,72.55
2019-04-10T01:17:57.044Z,72.13
2019-04-10T01:21:04.093Z,72.25
2019-04-10T01:24:11.670Z,71.69
2019-04-10T01:27:18.074Z,71.69
2019-04-10T01:30:24.546Z,71.56
2019-04-10T01:33:30.962Z,71.40
2019-04-10T01:36:37.550Z,71.09
2019-04-10T01:39:44.053Z,71.09
2019-04-10T01:43:02.728Z,70.30
2019-04-10T01:45:58.492Z,69.93
2019-04-10T01:49:05.252Z,69.85
2019-04-10T01:52:11.711Z,68.86
2019-04-10T01:55:25.343Z,68.93
2019-04-10T01:58:27.358Z,68.81
2019-04-10T02:01:39.243Z,67.93
2019-04-10T02:04:45.713Z,68.51
2019-04-10T02:08:01.175Z,67.98
2019-04-10T02:11:00.681Z,68.04
2019-04-10T02:14:07.840Z,68.28
2019-04-10T02:17:14.738Z,67.61
2019-04-10T02:20:22.924Z,67.34
2019-04-10T02:23:30.261Z,67.64
2019-04-10T02:26:36.641Z,67.92
2019-04-10T02:29:43.933Z,67.85
2019-04-10T02:32:52.430Z,68.23
2019-04-10T02:35:59.158Z,68.62
2019-04-10T02:39:17.614Z,68.78
2019-04-10T02:42:16.399Z,69.04
2019-04-10T02:45:24.196Z,69.02
2019-04-10T02:48:32.043Z,69.08
2019-04-10T02:51:38.960Z,69.02
2019-04-10T02:54:46.016Z,69.32
2019-04-10T02:57:54.153Z,69.12
2019-04-10T03:01:02.783Z,69.12
2019-04-10T03:04:11.394Z,68.81
2019-04-10T03:07:17.803Z,69.10
2019-04-10T03:10:34.063Z,69.59
2019-04-10T03:13:33.699Z,69.28
2019-04-10T03:16:40.276Z,68.87
2019-04-10T03:19:46.640Z,68.23
2019-04-10T03:22:53.430Z,68.60
2019-04-10T03:25:59.981Z,68.04
2019-04-10T03:29:07.264Z,67.89
2019-04-10T03:32:36.234Z,68.30
2019-04-10T03:35:45.205Z,67.78
2019-04-10T03:38:59.527Z,67.75
2019-04-10T03:41:59.562Z,67.55
2019-04-10T03:45:06.052Z,67.29
2019-04-10T03:48:13.620Z,67.41
2019-04-10T03:51:20.700Z,66.88
2019-04-10T03:54:27.977Z,67.04
2019-04-10T03:57:34.538Z,66.72
2019-04-10T04:00:43.071Z,67.05
2019-04-10T04:03:49.704Z,66.91
2019-04-10T04:06:56.020Z,67.57
2019-04-10T04:10:02.598Z,67.95
2019-04-10T04:13:09.067Z,67.96
2019-04-10T04:16:15.614Z,66.62
2019-04-10T04:19:24.006Z,67.74
2019-04-10T04:22:30.694Z,68.12
2019-04-10T04:25:38.613Z,67.42
2019-04-10T04:28:45.353Z,66.71
2019-04-10T04:31:52.636Z,67.03
2019-04-10T04:34:59.851Z,67.32
2019-04-10T04:38:07.150Z,66.96
2019-04-10T04:41:13.917Z,66.95
2019-04-10T04:44:20.377Z,66.95
2019-04-10T04:47:26.753Z,66.87
2019-04-10T04:50:34.208Z,67.34
2019-04-10T04:53:44.004Z,66.91
2019-04-10T04:56:50.538Z,66.44
2019-04-10T04:59:57.072Z,66.68
2019-04-10T05:03:04.995Z,66.74
2019-04-10T05:06:12.523Z,66.59
2019-04-10T05:09:29.837Z,66.16
2019-04-10T05:12:27.670Z,66.21
2019-04-10T05:15:35.197Z,66.04
2019-04-10T05:18:41.678Z,66.16
2019-04-10T05:21:48.033Z,65.88
2019-04-10T05:24:54.487Z,65.23
2019-04-10T05:28:01.556Z,64.54
2019-04-10T05:31:08.676Z,64.53
2019-04-10T05:34:15.746Z,64.72
2019-04-10T05:37:23.007Z,63.71
2019-04-10T05:40:30.160Z,63.93
2019-04-10T05:43:36.630Z,63.96
2019-04-10T05:46:43.057Z,64.14
2019-04-10T05:49:49.349Z,64.14
2019-04-10T05:52:55.960Z,63.09
2019-04-10T05:56:03.506Z,63.84
2019-04-10T05:59:10.872Z,63.23
2019-04-10T06:02:18.290Z,63.42
2019-04-10T06:05:26.394Z,62.77
2019-04-10T06:08:33.367Z,63.45
2019-04-10T06:11:42.526Z,63.17
2019-04-10T06:14:48.534Z,63.15
2019-04-10T06:17:54.859Z,63.05
2019-04-10T06:21:01.386Z,63.10
2019-04-10T06:24:08.898Z,63.30
2019-04-10T06:27:16.326Z,62.92
2019-04-10T06:30:23.905Z,62.74
2019-04-10T06:33:31.746Z,63.58
2019-04-10T06:36:39.575Z,63.67
2019-04-10T06:39:46.522Z,63.96
2019-04-10T06:42:56.126Z,64.50
2019-04-10T06:46:02.359Z,64.52
2019-04-10T06:49:09.280Z,64.23
2019-04-10T06:52:16.670Z,64.43
2019-04-10T06:55:24.313Z,64.45
2019-04-10T06:58:31.798Z,64.72
2019-04-10T07:01:45.589Z,64.45
2019-04-10T07:04:54.115Z,64.56
2019-04-10T07:08:05.748Z,64.35
2019-04-10T07:11:09.071Z,65.70
2019-04-10T07:14:14.303Z,65.30
2019-04-10T07:17:22.012Z,65.53
2019-04-10T07:20:29.513Z,65.26
2019-04-10T07:23:36.580Z,65.22
2019-04-10T07:26:45.953Z,65.38
2019-04-10T07:29:55.115Z,64.89
2019-04-10T07:32:59.331Z,65.34
2019-04-10T07:36:10.960Z,64.89
2019-04-10T07:39:15.155Z,64.80
2019-04-10T07:42:30.424Z,64.43
2019-04-10T07:45:29.713Z,64.55
2019-04-10T07:48:36.078Z,64.37
2019-04-10T07:51:42.579Z,64.33
2019-04-10T07:54:50.326Z,64.13
2019-04-10T07:57:57.386Z,63.90
2019-04-10T08:01:03.838Z,63.24
2019-04-10T08:04:10.487Z,63.96
2019-04-10T08:07:28.569Z,63.70
2019-04-10T08:10:26.408Z,63.90
2019-04-10T08:13:33.142Z,63.73
2019-04-10T08:16:39.635Z,63.52
2019-04-10T08:19:46.120Z,63.16
2019-04-10T08:22:53.289Z,62.41
2019-04-10T08:26:00.690Z,63.59
2019-04-10T08:29:07.775Z,63.67
2019-04-10T08:32:14.411Z,63.95
2019-04-10T08:35:21.032Z,64.04
2019-04-10T08:38:28.037Z,64.00
2019-04-10T08:41:35.577Z,63.97
2019-04-10T08:44:42.450Z,63.76
2019-04-10T08:47:48.974Z,62.89
2019-04-10T08:50:56.717Z,62.72
2019-04-10T08:54:03.320Z,63.38
2019-04-10T08:57:11.191Z,62.58
2019-04-10T09:00:18.660Z,62.60
2019-04-10T09:03:25.135Z,62.87
2019-04-10T09:06:33.616Z,62.31
2019-04-10T09:09:41.354Z,62.84
2019-04-10T09:12:49.245Z,62.50
2019-04-10T09:15:56.208Z,63.01
2019-04-10T09:19:03.487Z,62.86
2019-04-10T09:22:10.074Z,63.05
2019-04-10T09:25:17.939Z,63.12
2019-04-10T09:28:24.503Z,62.63
2019-04-10T09:31:31.554Z,62.58
2019-04-10T09:34:38.044Z,62.21
2019-04-10T09:37:44.608Z,62.27
2019-04-10T09:40:51.068Z,61.68
2019-04-10T09:43:58.280Z,61.60
2019-04-10T09:47:05.522Z,60.90
2019-04-10T09:50:13.113Z,60.91
2019-04-10T09:53:19.593Z,61.22
2019-04-10T09:56:25.925Z,61.35
2019-04-10T09:59:36.454Z,60.57
2019-04-10T10:02:40.427Z,60.98
2019-04-10T10:05:47.820Z,60.56
2019-04-10T10:08:54.358Z,60.76
2019-04-10T10:12:01.055Z,60.94
2019-04-10T10:15:09.850Z,61.38
2019-04-10T10:18:17.124Z,61.58
2019-04-10T10:21:24.138Z,62.29
2019-04-10T10:24:30.915Z,62.89
2019-04-10T10:27:38.554Z,62.17
2019-04-10T10:30:45.048Z,62.08
2019-04-10T10:33:52.218Z,62.08
2019-04-10T10:36:59.980Z,61.47
2019-04-10T10:40:08.967Z,61.38
2019-04-10T10:43:16.874Z,61.21
2019-04-10T10:46:23.196Z,60.97
2019-04-10T10:49:30.655Z,61.10
2019-04-10T10:52:37.627Z,60.42
2019-04-10T10:55:44.093Z,60.59
2019-04-10T10:58:50.728Z,60.41
2019-04-10T11:02:00.421Z,60.27
2019-04-10T11:05:07.366Z,59.26
2019-04-10T11:08:15.351Z,59.51
2019-04-10T11:11:24.055Z,60.23
2019-04-10T11:14:31.503Z,59.19
2019-04-10T11:17:38.746Z,59.38
2019-04-10T11:20:47.923Z,58.56
2019-04-10T11:23:55.623Z,58.77
2019-04-10T11:27:02.811Z,58.74
2019-04-10T11:30:10.145Z,58.49
2019-04-10T11:33:17.579Z,57.99
2019-04-10T11:36:28.085Z,57.23
2019-04-10T11:39:35.937Z,57.29
2019-04-10T11:42:44.592Z,57.80
2019-04-10T11:45:52.852Z,57.53
2019-04-10T11:49:00.760Z,57.68
2019-04-10T11:52:07.399Z,57.22
2019-04-10T11:55:19.778Z,56.70
2019-04-10T11:58:25.231Z,56.71
2019-04-10T12:01:34.223Z,57.88
2019-04-10T12:04:50.345Z,56.74
2019-04-10T12:08:09.550Z,56.87
2019-04-10T12:14:05.062Z,56.54
2019-04-10T12:17:11.694Z,56.57
2019-04-10T12:20:18.851Z,56.26
2019-04-10T12:23:25.248Z,57.39
2019-04-10T12:26:32.576Z,56.83
2019-04-10T12:29:38.911Z,56.22
2019-04-10T12:32:47.199Z,56.75
2019-04-10T12:35:54.122Z,56.42
2019-04-10T12:39:00.526Z,55.66
2019-04-10T12:42:08.479Z,56.13
2019-04-10T12:45:15.814Z,55.50
2019-04-10T12:48:23.051Z,54.90
2019-04-10T12:51:29.769Z,53.80
2019-04-10T12:54:36.217Z,53.41
2019-04-10T12:57:43.478Z,53.56
2019-04-10T13:00:50.701Z,53.87
2019-04-10T13:03:58.116Z,54.55
2019-04-10T13:07:05.411Z,54.24
2019-04-10T13:10:12.823Z,54.04
2019-04-10T13:13:19.968Z,53.50
2019-04-10T13:16:26.450Z,54.50
2019-04-10T13:19:34.108Z,54.67
2019-04-10T13:22:40.987Z,53.74
2019-04-10T13:25:55.522Z,53.81
2019-04-10T13:28:58.028Z,53.79
2019-04-10T13:32:06.292Z,53.63
2019-04-10T13:35:13.657Z,54.05
2019-04-10T13:38:28.656Z,54.14
2019-04-10T13:41:28.327Z,55.28
2019-04-10T13:44:34.923Z,54.53
2019-04-10T13:47:42.791Z,53.00
2019-04-10T13:50:50.822Z,53.29
2019-04-10T13:53:58.526Z,54.45
2019-04-10T13:57:07.720Z,54.34
2019-04-10T14:00:23.948Z,54.44
2019-04-10T14:03:30.362Z,56.63
2019-04-10T14:06:37.987Z,57.46
2019-04-10T14:09:49.664Z,58.67
2019-04-10T14:12:53.477Z,57.71
2019-04-10T14:16:00.148Z,58.46
2019-04-10T14:19:07.720Z,59.23
2019-04-10T14:22:14.121Z,59.58
2019-04-10T14:25:29.692Z,60.29
2019-04-10T14:28:37.424Z,60.91
2019-04-10T14:31:49.021Z,59.36
2019-04-10T14:34:55.693Z,59.77
2019-04-10T14:38:03.021Z,59.01
2019-04-10T14:41:09.505Z,59.44
2019-04-10T14:44:15.959Z,59.41
2019-04-10T14:47:23.325Z,59.21
2019-04-10T14:50:30.248Z,59.04
2019-04-10T14:53:37.261Z,59.72
2019-04-10T14:56:43.725Z,60.28
2019-04-10T14:59:50.621Z,60.97
2019-04-10T15:02:58.016Z,61.87
2019-04-10T15:06:05.060Z,62.14
2019-04-10T15:09:25.385Z,61.81
2019-04-10T15:12:28.520Z,61.82
2019-04-10T15:15:34.927Z,61.16
2019-04-10T15:18:41.392Z,60.46
2019-04-10T15:21:47.845Z,60.76
2019-04-10T15:24:54.375Z,61.08
2019-04-10T15:28:02.247Z,60.04
2019-04-10T15:31:08.846Z,59.51
2019-04-10T15:34:16.192Z,59.39
2019-04-10T15:37:22.855Z,59.70
2019-04-10T15:40:30.319Z,60.11
2019-04-10T15:43:37.204Z,59.66
2019-04-10T15:46:43.591Z,59.27
2019-04-10T15:49:49.898Z,59.07
2019-04-10T15:52:56.357Z,59.02
2019-04-10T15:56:03.391Z,59.00
2019-04-10T15:59:10.188Z,59.02
2019-04-10T16:02:17.132Z,58.60
2019-04-10T16:05:23.709Z,59.12
2019-04-10T16:08:30.792Z,58.98
2019-04-10T16:11:46.170Z,58.71
2019-04-10T16:14:52.819Z,58.92
2019-04-10T16:18:05.268Z,58.49
2019-04-10T16:21:12.500Z,59.39
2019-04-10T16:24:18.844Z,59.11
2019-04-10T16:27:25.215Z,60.22
2019-04-10T16:30:33.084Z,59.66
2019-04-10T16:33:39.760Z,59.72
2019-04-10T16:36:46.194Z,60.01
2019-04-10T16:40:00.320Z,60.53
2019-04-10T16:43:01.558Z,60.47
2019-04-10T16:46:07.944Z,61.02
2019-04-10T16:49:14.778Z,61.22
2019-04-10T16:52:21.397Z,61.82
2019-04-10T16:55:29.085Z,61.84
2019-04-10T16:58:36.661Z,62.42
2019-04-10T17:01:43.087Z,62.77
2019-04-10T17:04:50.136Z,63.42
2019-04-10T17:07:57.331Z,63.84
2019-04-10T17:11:05.642Z,63.04
2019-04-10T17:14:12.931Z,63.41
2019-04-10T17:17:20.177Z,63.04
2019-04-10T17:20:28.660Z,63.14
2019-04-10T17:23:36.424Z,64.46
2019-04-10T17:26:43.417Z,64.46
2019-04-10T17:29:51.558Z,64.29
2019-04-10T17:32:58.444Z,65.27
2019-04-10T17:36:05.112Z,64.54
2019-04-10T17:39:16.608Z,64.66
2019-04-10T17:42:24.103Z,64.93
2019-04-10T17:45:31.612Z,64.58
2019-04-10T17:48:39.249Z,64.78
2019-04-10T17:51:46.915Z,64.65
2019-04-10T17:54:53.460Z,63.87
2019-04-10T17:58:01.036Z,63.75
2019-04-10T18:01:10.954Z,63.67
2019-04-10T18:04:17.928Z,63.79
2019-04-10T18:07:24.880Z,63.48
2019-04-10T18:10:43.937Z,63.29
2019-04-10T18:13:39.449Z,64.19
2019-04-10T18:16:47.875Z,64.19
2019-04-10T18:19:54.636Z,64.18
2019-04-10T18:23:01.230Z,63.66
2019-04-10T18:26:08.690Z,63.81
2019-04-10T18:29:17.752Z,64.52
2019-04-10T18:32:25.415Z,63.75
2019-04-10T18:35:33.669Z,64.01
2019-04-10T18:38:41.974Z,63.75
2019-04-10T18:41:48.606Z,63.79
2019-04-10T18:44:55.631Z,63.43
2019-04-10T18:48:03.728Z,63.91
2019-04-10T18:51:12.141Z,63.58
2019-04-10T18:54:18.578Z,63.71
2019-04-10T18:57:26.133Z,63.77
2019-04-10T19:01:05.146Z,63.46
2019-04-10T19:04:24.543Z,63.86
2019-04-10T19:07:30.930Z,63.84
2019-04-10T19:10:37.464Z,64.51
2019-04-10T19:13:46.735Z,64.70
2019-04-10T19:16:53.244Z,64.52
2019-04-10T19:19:59.638Z,65.13
2019-04-10T19:23:08.863Z,64.79
2019-04-10T19:26:20.974Z,64.39
2019-04-10T19:29:29.672Z,64.82
2019-04-10T19:32:37.609Z,64.97
2019-04-10T19:35:45.870Z,64.91
2019-04-10T19:39:02.146Z,65.65
2019-04-10T19:42:15.378Z,65.43
2019-04-10T19:45:22.252Z,65.20
2019-04-10T19:48:28.744Z,65.20
2019-04-10T19:51:36.317Z,64.97
2019-04-10T19:54:43.937Z,64.64
2019-04-10T19:57:50.413Z,65.15
2019-04-10T20:00:57.227Z,65.30
2019-04-10T20:04:03.968Z,65.44
2019-04-10T20:07:11.133Z,65.74
2019-04-10T20:10:17.590Z,65.48
2019-04-10T20:13:24.857Z,65.07
2019-04-10T20:16:31.333Z,65.23
2019-04-10T20:19:38.373Z,65.34
2019-04-10T20:22:45.885Z,65.14
2019-04-10T20:25:52.497Z,65.18
2019-04-10T20:28:59.161Z,65.74
2019-04-10T20:32:05.887Z,66.21
2019-04-10T20:35:12.522Z,65.93
2019-04-10T20:38:19.759Z,65.88
2019-04-10T20:41:26.674Z,66.04
2019-04-10T20:44:33.201Z,66.06
2019-04-10T20:47:39.516Z,65.69
2019-04-10T20:50:46.044Z,66.01
2019-04-10T20:53:52.641Z,65.95
2019-04-10T20:56:59.264Z,65.49
2019-04-10T21:00:07.664Z,65.34
2019-04-10T21:03:15.552Z,65.22
2019-04-10T21:06:21.893Z,65.40
2019-04-10T21:09:28.371Z,65.50
2019-04-10T21:12:34.633Z,65.64
2019-04-10T21:15:42.241Z,65.58
2019-04-10T21:18:48.646Z,65.45
2019-04-10T21:21:55.380Z,65.39
2019-04-10T21:25:02.876Z,65.57
2019-04-10T21:28:09.732Z,66.14
2019-04-10T21:31:52.528Z,66.14
2019-04-10T21:34:59.755Z,65.88
2019-04-10T21:38:06.846Z,65.46
2019-04-10T21:41:15.602Z,66.86
2019-04-10T21:44:24.706Z,65.70
2019-04-10T21:47:31.236Z,66.68
2019-04-10T21:50:37.752Z,68.01
2019-04-10T21:53:45.153Z,67.23
2019-04-10T21:56:51.596Z,67.08
2019-04-10T21:59:58.034Z,66.76
2019-04-10T22:03:04.959Z,66.67
2019-04-10T22:06:43.428Z,66.14
2019-04-10T22:09:56.694Z,66.69
2019-04-10T22:13:03.748Z,66.31
2019-04-10T22:16:13.589Z,66.75
2019-04-10T22:19:21.025Z,66.22
2019-04-10T22:22:27.489Z,65.73
2019-04-10T22:25:35.221Z,65.24
2019-04-10T22:28:43.515Z,65.63
2019-04-10T22:31:51.298Z,65.81
2019-04-10T22:34:58.762Z,65.25
2019-04-10T22:38:05.513Z,65.72
2019-04-10T22:41:20.843Z,65.51
2019-04-10T22:44:33.776Z,66.19
2019-04-10T22:47:29.684Z,65.91
2019-04-10T22:50:36.461Z,65.44
2019-04-10T22:53:43.738Z,65.19
2019-04-10T22:56:50.978Z,65.16
2019-04-10T22:59:57.478Z,65.39
2019-04-10T23:03:04.075Z,65.29
2019-04-10T23:06:11.525Z,65.51
2019-04-10T23:09:18.368Z,65.20
2019-04-10T23:12:24.717Z,65.12
2019-04-10T23:15:31.491Z,64.67
2019-04-10T23:18:37.937Z,64.36
2019-04-10T23:21:45.514Z,64.41
2019-04-10T23:24:51.918Z,64.40
2019-04-10T23:27:58.908Z,64.40
2019-04-10T23:31:05.714Z,64.59
2019-04-10T23:34:12.780Z,64.29
2019-04-10T23:37:19.134Z,64.32
2019-04-10T23:40:25.723Z,64.41
2019-04-10T23:43:31.968Z,64.41
2019-04-10T23:46:38.938Z,64.24
2019-04-10T23:49:45.833Z,64.34
2019-04-10T23:52:52.457Z,64.60
2019-04-10T23:55:58.808Z,64.61
2019-04-10T23:59:06.567Z,64.89
